WetterOnline ( https://www.wetteronline.de )

Wetter aktuell Schwäbisch Gmünd

Aktuelles Wetter: Kaisersbach-Cronhütte (489m)

6-stündlich | Neueste Meldungen
Ortszeit Temperatur Wetter
Di, 20.08. 14:00 16.7° C leichter Regen
Di, 20.08. 8:00 13.7° C wolkig
Di, 20.08. 2:00 14.1° C bedeckt
Mo, 19.08. 20:00 18.7° C wolkig
Mo, 19.08. 14:00 20.6° C wolkig
Mo, 19.08. 8:00 16.3° C Regen
Mo, 19.08. 2:00 17.6° C wolkig
So, 18.08. 20:00 23.6° C bewölkt
Ortszeit Temperatur Wetter
Di, 20.08. 17:30 13.3° C leichter Regen
Di, 20.08. 17:20 13.3° C leichter Regen
Di, 20.08. 17:10 13.4° C leichter Regen
Di, 20.08. 17:00 13.8° C leichter Regen
Di, 20.08. 16:50 13.8° C leichter Regen
Di, 20.08. 16:40 14.2° C leichter Regen
Di, 20.08. 16:30 15.0° C leichter Regen
Di, 20.08. 16:00 15.2° C leichter Regen
Di, 20.08. 15:30 15.3° C leichter Regen
Di, 20.08. 15:00 15.4° C leichter Regen
Di, 20.08. 14:30 15.7° C leichter Regen
Ortszeit Relative Feuchte Sichtweite
Di, 20.08. 14:00 73% 45 km
Di, 20.08. 8:00 96% 20 km
Di, 20.08. 2:00 97% 19 km
Mo, 19.08. 20:00 74% 70 km
Mo, 19.08. 14:00 65% 65 km
Mo, 19.08. 8:00 96% 2.5 km
Mo, 19.08. 2:00 94% 40 km
So, 18.08. 20:00 58% 70 km
Ortszeit Relative Feuchte Sichtweite
Di, 20.08. 17:30 92% 7 km
Di, 20.08. 17:20 92% -
Di, 20.08. 17:10 91% -
Di, 20.08. 17:00 92% 6 km
Di, 20.08. 16:50 92% -
Di, 20.08. 16:40 91% -
Di, 20.08. 16:30 93% 7 km
Di, 20.08. 16:00 90% 7 km
Di, 20.08. 15:30 83% 16 km
Di, 20.08. 15:00 86% 10 km
Di, 20.08. 14:30 80% 15 km
Ortszeit Niederschlagsmenge Niederschlagsart
Di, 20.08. 14:00 0.1 l/m2 in 6 Std. Regen
Di, 20.08. 8:00 0.0 l/m2 in 12 Std. -
Di, 20.08. 2:00 0.0 l/m2 in 6 Std. -
Mo, 19.08. 20:00 0.3 l/m2 in 12 Std. -
Mo, 19.08. 14:00 0.3 l/m2 in 6 Std. Regen
Mo, 19.08. 8:00 5 l/m2 in 12 Std. Regen
Mo, 19.08. 2:00 2 l/m2 in 6 Std. Regen
So, 18.08. 20:00 0.1 l/m2 in 12 Std. Regen
Ortszeit Niederschlagsmenge Niederschlagsart
Di, 20.08. 17:30 0.9 l/m2 in 1 Std. -
Di, 20.08. 17:20 keine Meldung -
Di, 20.08. 17:10 keine Meldung -
Di, 20.08. 17:00 1.8 l/m2 in 1 Std. Regen
Di, 20.08. 16:50 keine Meldung -
Di, 20.08. 16:40 keine Meldung -
Di, 20.08. 16:30 0.7 l/m2 in 1 Std. -
Di, 20.08. 16:00 1.0 l/m2 in 1 Std. Regen
Di, 20.08. 15:30 0.4 l/m2 in 1 Std. -
Di, 20.08. 15:00 0.6 l/m2 in 1 Std. Regen
Di, 20.08. 14:30 0.1 l/m2 in 1 Std. -
Ortszeit Stärke Spitze Richtung
km/h Bft. km/h Grad Sektor
Di, 20.08. 14:00 6 1 15 320° NW
Di, 20.08. 8:00 4 1 4 340° N
Di, 20.08. 2:00 0 0 7 - -
Mo, 19.08. 20:00 4 1 22 290° W
Mo, 19.08. 14:00 9 2 19 230° SW
Mo, 19.08. 8:00 7 2 14 240° SW
Mo, 19.08. 2:00 4 1 22 210° SW
So, 18.08. 20:00 6 1 30 230° SW
Ortszeit Stärke Spitze Richtung
km/h Bft. km/h Grad Sektor
Di, 20.08. 17:30 9 2 17 290° W
Di, 20.08. 17:20 9 2 - 290° W
Di, 20.08. 17:10 7 2 - 300° NW
Di, 20.08. 17:00 7 2 18 310° NW
Di, 20.08. 16:50 7 2 - 310° NW
Di, 20.08. 16:40 9 2 - 300° NW
Di, 20.08. 16:30 7 2 14 290° W
Di, 20.08. 16:00 6 1 9 290° W
Di, 20.08. 15:30 6 1 9 300° NW
Di, 20.08. 15:00 6 1 13 290° W
Di, 20.08. 14:30 7 2 11 300° NW
Ortszeit Untergrenze Bedeckung Gattung
total tief tief mittel hoch
Di, 20.08. 14:00 1500 m 8/8 7/8 - - -
Di, 20.08. 8:00 1500 m 8/8 3/8 - - -
Di, 20.08. 2:00 5100 m 8/8 8/8 - - -
Mo, 19.08. 20:00 2100 m 8/8 1/8 - - -
Mo, 19.08. 14:00 1230 m 7/8 3/8 - - -
Mo, 19.08. 8:00 240 m 8/8 8/8 - - -
Mo, 19.08. 2:00 960 m 8/8 2/8 - - -
So, 18.08. 20:00 2100 m 7/8 6/8 - - -
Ortszeit Bedeckungsgrad in Achtel und Wolkenuntergrenze
Di, 20.08. 17:30 7(1800m)
Di, 20.08. 17:20 7(1800m)
Di, 20.08. 17:10 4(1500m) 8(1800m)
Di, 20.08. 17:00 1(210m) 5(1380m) 7(1500m)
Di, 20.08. 16:50 1(210m) 5(1380m) 7(1500m)
Di, 20.08. 16:40 2(210m) 7(1350m)
Di, 20.08. 16:30 1(240m) 4(1170m) 7(1380m)
Di, 20.08. 16:00 7(1320m)
Di, 20.08. 15:30 1(1800m) 8(2400m)
Di, 20.08. 15:00 5(2100m) 8(2400m)
Di, 20.08. 14:30 3(2100m) 7(2400m) 7(3000m)
Ortszeit Luftdruck NN (hPa) Tendenz (hPa in 3 Std.)
Di, 20.08. 14:00 1022 + 0,5
Di, 20.08. 8:00 1021 + 0,3
Di, 20.08. 2:00 1021 + 0,8
Mo, 19.08. 20:00 1018 + 0,4
Mo, 19.08. 14:00 1017 + 0,5
Mo, 19.08. 8:00 1017 + 0,9
Mo, 19.08. 2:00 1015 + 3,3
So, 18.08. 20:00 1009 + 0,6
Ortszeit Luftdruck NN (hPa) Tendenz (hPa in 3 Std.)
Di, 20.08. 17:30 1025 + 1,6
Di, 20.08. 17:20 1025 keine Meldung
Di, 20.08. 17:10 1025 keine Meldung
Di, 20.08. 17:00 1024 + 1,5
Di, 20.08. 16:50 1024 keine Meldung
Di, 20.08. 16:40 1024 keine Meldung
Di, 20.08. 16:30 1024 + 1,5
Di, 20.08. 16:00 1024 + 1,2
Di, 20.08. 15:30 1023 + 0,7
Di, 20.08. 15:00 1023 + 0,7
Di, 20.08. 14:30 1023 + 0,7
Ortszeit Schneehöhe (cm)
Di, 20.08. 14:00 -
Di, 20.08. 8:00 -
Di, 20.08. 2:00 -
Mo, 19.08. 20:00 -
Mo, 19.08. 14:00 -
Mo, 19.08. 8:00 -
Mo, 19.08. 2:00 -
So, 18.08. 20:00 -
Ortszeit Schneehöhe (cm)
Di, 20.08. 17:30 -
Di, 20.08. 17:20 -
Di, 20.08. 17:10 -
Di, 20.08. 17:00 -
Di, 20.08. 16:50 -
Di, 20.08. 16:40 -
Di, 20.08. 16:30 -
Di, 20.08. 16:00 -
Di, 20.08. 15:30 -
Di, 20.08. 15:00 -
Di, 20.08. 14:30 -
Link zu dieser Seite / Seite empfehlen

Das Wetter in ...